Time;durP1;ratioP1;P1;durP2;ratioP2;P2;SDS_P1;SDS_P2;PMS_P1;PMS_P2;Temp;Humidity;BMP_temperature;BMP_pressure;BME280_temperature;BME280_humidity;BME280_pressure;Samples;Min_cycle;Max_cycle;Signal;HPM_P1;HPM_P2
2021/01/21 00:02:03;;;;;;;96.95;44.15;;;;;;;;;;1762188;81;21147;-85
2021/01/21 00:04:29;;;;;;;96.65;43.00;;;;;;;;;;1761886;81;21313;-85
2021/01/21 00:06:55;;;;;;;94.67;43.58;;;;;;;;;;1762129;81;21135;-83
2021/01/21 00:09:21;;;;;;;99.52;43.10;;;;;;;;;;1762330;81;21317;-84
2021/01/21 00:11:48;;;;;;;100.10;44.05;;;;;;;;;;1762285;81;21147;-86
2021/01/21 00:14:14;;;;;;;99.30;44.38;;;;;;;;;;1762382;81;21162;-85
2021/01/21 00:16:40;;;;;;;96.82;44.83;;;;;;;;;;1762040;81;21306;-85
2021/01/21 00:19:07;;;;;;;98.22;45.25;;;;;;;;;;1762210;81;21143;-85
2021/01/21 00:21:33;;;;;;;103.12;44.75;;;;;;;;;;1762231;81;21745;-85
2021/01/21 00:23:59;;;;;;;90.95;41.60;;;;;;;;;;1762152;81;21152;-85
2021/01/21 00:26:25;;;;;;;104.12;44.53;;;;;;;;;;1761819;81;21187;-84
2021/01/21 00:28:52;;;;;;;103.22;43.52;;;;;;;;;;1762053;81;21167;-86
2021/01/21 00:31:18;;;;;;;95.25;44.77;;;;;;;;;;1762028;81;21551;-85
2021/01/21 00:33:44;;;;;;;98.92;43.33;;;;;;;;;;1762224;81;21171;-85
2021/01/21 00:36:12;;;;;;;100.90;43.40;;;;;;;;;;1761963;81;21320;-84
2021/01/21 00:38:38;;;;;;;97.70;43.65;;;;;;;;;;1758680;81;21156;-84
2021/01/21 00:41:04;;;;;;;94.62;44.08;;;;;;;;;;1754122;82;21662;-85
2021/01/21 00:43:30;;;;;;;102.30;44.65;;;;;;;;;;1754237;82;21164;-84
2021/01/21 00:45:57;;;;;;;100.22;45.40;;;;;;;;;;1754338;82;21155;-85
2021/01/21 00:48:23;;;;;;;100.87;46.25;;;;;;;;;;1754071;82;21175;-84
2021/01/21 00:50:49;;;;;;;99.17;44.48;;;;;;;;;;1754194;82;21168;-84
2021/01/21 00:53:16;;;;;;;99.83;46.50;;;;;;;;;;1753924;80;21193;-84
2021/01/21 00:55:42;;;;;;;93.87;46.35;;;;;;;;;;1754281;82;21159;-84
2021/01/21 00:58:08;;;;;;;96.20;45.23;;;;;;;;;;1754309;82;21175;-85
2021/01/21 01:00:35;;;;;;;102.40;45.15;;;;;;;;;;1754214;81;21603;-86
2021/01/21 01:03:04;;;;;;;107.63;46.20;;;;;;;;;;1754109;82;21132;-86
2021/01/21 01:05:30;;;;;;;101.20;44.75;;;;;;;;;;1754127;82;21610;-84
2021/01/21 01:07:56;;;;;;;102.40;46.35;;;;;;;;;;1754256;82;21195;-85
2021/01/21 01:10:22;;;;;;;93.87;41.88;;;;;;;;;;1754167;82;21147;-85
2021/01/21 01:12:48;;;;;;;96.15;42.98;;;;;;;;;;1754094;82;21155;-85
2021/01/21 01:15:14;;;;;;;103.02;43.35;;;;;;;;;;1754203;82;21623;-84
2021/01/21 01:17:41;;;;;;;97.57;46.00;;;;;;;;;;1754190;82;21132;-84
2021/01/21 01:20:07;;;;;;;99.58;41.28;;;;;;;;;;1754088;82;21172;-85
2021/01/21 01:22:33;;;;;;;99.03;43.68;;;;;;;;;;1754078;80;21120;-85
2021/01/21 01:25:00;;;;;;;105.60;44.03;;;;;;;;;;1754082;82;21163;-84
2021/01/21 01:27:26;;;;;;;101.53;43.38;;;;;;;;;;1754292;82;21132;-85
2021/01/21 01:29:52;;;;;;;100.18;43.35;;;;;;;;;;1754218;82;21164;-83
2021/01/21 01:32:18;;;;;;;107.32;44.08;;;;;;;;;;1754290;82;21163;-85
2021/01/21 01:34:44;;;;;;;99.87;43.08;;;;;;;;;;1754138;82;21570;-86
2021/01/21 01:37:11;;;;;;;103.00;44.67;;;;;;;;;;1753933;82;21579;-85
2021/01/21 01:39:37;;;;;;;106.22;42.05;;;;;;;;;;1747131;82;21180;-85
2021/01/21 01:42:05;;;;;;;96.15;41.88;;;;;;;;;;1740378;82;21294;-84
2021/01/21 01:44:31;;;;;;;103.55;43.38;;;;;;;;;;1735823;82;21583;-85
2021/01/21 01:46:57;;;;;;;119.22;49.45;;;;;;;;;;1740292;82;21198;-86
2021/01/21 01:49:23;;;;;;;115.65;49.10;;;;;;;;;;1719549;82;21188;-85
2021/01/21 01:51:50;;;;;;;112.30;47.98;;;;;;;;;;1740239;82;21718;-85
2021/01/21 01:54:16;;;;;;;108.05;42.67;;;;;;;;;;1740405;81;21156;-85
2021/01/21 01:56:42;;;;;;;99.47;42.30;;;;;;;;;;1740181;82;21156;-85
2021/01/21 01:59:09;;;;;;;98.35;43.45;;;;;;;;;;1740667;82;21164;-85
2021/01/21 02:01:35;;;;;;;101.50;44.53;;;;;;;;;;1740319;82;21169;-85
2021/01/21 02:04:01;;;;;;;107.00;43.60;;;;;;;;;;1740218;82;21160;-85
2021/01/21 02:06:27;;;;;;;108.65;44.48;;;;;;;;;;1740316;82;21605;-84
2021/01/21 02:08:53;;;;;;;116.33;44.53;;;;;;;;;;1740200;82;21152;-84
2021/01/21 02:11:31;;;;;;;92.22;41.63;;;;;;;;;;1719448;82;21151;-83
2021/01/21 02:14:01;;;;;;;95.38;40.83;;;;;;;;;;1740062;82;21591;-84
2021/01/21 02:16:44;;;;;;;86.08;38.17;;;;;;;;;;1740148;82;21125;-83
2021/01/21 02:19:29;;;;;;;95.30;39.58;;;;;;;;;;1740024;82;21160;-85
2021/01/21 02:21:55;;;;;;;;;;;;;;;;;;1742585;82;21176;-84
2021/01/21 02:24:23;;;;;;;107.05;43.90;;;;;;;;;;1740005;81;20123;-85
2021/01/21 02:26:52;;;;;;;93.25;36.65;;;;;;;;;;1739674;82;21258;-83
2021/01/21 02:29:21;;;;;;;95.10;40.33;;;;;;;;;;1740112;82;21172;-83
2021/01/21 02:31:52;;;;;;;85.32;37.20;;;;;;;;;;1740214;82;21159;-84
2021/01/21 02:34:26;;;;;;;92.78;40.48;;;;;;;;;;1740272;82;21141;-85
2021/01/21 02:36:53;;;;;;;102.30;40.95;;;;;;;;;;1740213;82;21739;-84
2021/01/21 02:39:20;;;;;;;94.07;39.05;;;;;;;;;;1743405;81;21179;-84
2021/01/21 02:41:47;;;;;;;103.40;40.48;;;;;;;;;;1754026;81;21599;-84
2021/01/21 02:44:13;;;;;;;97.95;39.00;;;;;;;;;;1754177;82;21179;-84
2021/01/21 02:46:39;;;;;;;93.45;40.25;;;;;;;;;;1754058;82;21571;-84
2021/01/21 02:49:05;;;;;;;98.45;38.58;;;;;;;;;;1753984;81;21195;-85
2021/01/21 02:51:33;;;;;;;100.00;43.10;;;;;;;;;;1754313;82;21163;-85
2021/01/21 02:54:04;;;;;;;88.65;37.65;;;;;;;;;;1754238;81;21155;-85
2021/01/21 02:56:30;;;;;;;101.95;40.55;;;;;;;;;;1753555;82;21635;-83
2021/01/21 02:58:57;;;;;;;86.12;37.63;;;;;;;;;;1754325;82;21154;-84
2021/01/21 03:01:23;;;;;;;94.03;37.10;;;;;;;;;;1754192;82;21156;-85
2021/01/21 03:03:49;;;;;;;94.45;38.08;;;;;;;;;;1754182;82;21163;-84
2021/01/21 03:06:15;;;;;;;90.28;33.48;;;;;;;;;;1754273;82;21236;-85
2021/01/21 03:08:41;;;;;;;98.58;38.73;;;;;;;;;;1754345;82;21630;-84
2021/01/21 03:11:09;;;;;;;98.37;37.20;;;;;;;;;;1754557;82;21615;-84
2021/01/21 03:13:36;;;;;;;95.20;35.85;;;;;;;;;;1754408;81;21144;-85
2021/01/21 03:16:02;;;;;;;83.95;31.87;;;;;;;;;;1754643;82;21587;-84
2021/01/21 03:18:28;;;;;;;96.75;37.80;;;;;;;;;;1754478;82;21187;-83
2021/01/21 03:20:55;;;;;;;94.28;36.28;;;;;;;;;;1754566;82;21583;-83
2021/01/21 03:23:21;;;;;;;87.45;36.65;;;;;;;;;;1754594;80;21168;-84
2021/01/21 03:25:47;;;;;;;90.67;35.33;;;;;;;;;;1754505;82;21569;-84
2021/01/21 03:28:13;;;;;;;85.15;34.18;;;;;;;;;;1754385;82;21162;-85
2021/01/21 03:30:40;;;;;;;101.45;39.75;;;;;;;;;;1754326;82;21159;-85
2021/01/21 03:33:06;;;;;;;90.45;34.43;;;;;;;;;;1754377;82;21219;-85
2021/01/21 03:35:32;;;;;;;82.97;33.65;;;;;;;;;;1754301;82;21143;-84
2021/01/21 03:37:58;;;;;;;82.35;30.20;;;;;;;;;;1754295;82;21128;-85
2021/01/21 03:40:24;;;;;;;92.37;37.38;;;;;;;;;;1754223;81;21163;-85
2021/01/21 03:42:51;;;;;;;92.22;35.00;;;;;;;;;;1754157;82;21179;-84
2021/01/21 03:45:17;;;;;;;79.05;30.45;;;;;;;;;;1726546;82;21555;-86
2021/01/21 03:47:43;;;;;;;84.03;31.15;;;;;;;;;;1753999;82;21630;-85
2021/01/21 03:50:09;;;;;;;88.75;32.98;;;;;;;;;;1754182;82;21136;-85
2021/01/21 03:52:36;;;;;;;93.12;34.53;;;;;;;;;;1754127;82;21148;-84
2021/01/21 03:55:02;;;;;;;86.02;35.80;;;;;;;;;;1753926;80;21140;-85
2021/01/21 03:57:28;;;;;;;88.82;35.20;;;;;;;;;;1754271;82;21171;-85
2021/01/21 03:59:54;;;;;;;83.80;32.33;;;;;;;;;;1754160;82;21228;-84
2021/01/21 04:02:20;;;;;;;84.07;33.40;;;;;;;;;;1771673;80;21523;-84
2021/01/21 04:04:46;;;;;;;78.37;32.35;;;;;;;;;;1753846;82;21128;-85
2021/01/21 04:07:13;;;;;;;85.15;34.67;;;;;;;;;;1753917;82;21627;-85
2021/01/21 04:09:39;;;;;;;78.78;33.02;;;;;;;;;;1753706;82;21583;-85
2021/01/21 04:12:06;;;;;;;68.05;27.93;;;;;;;;;;1754008;82;21465;-85
2021/01/21 04:14:32;;;;;;;76.35;32.73;;;;;;;;;;1753936;82;21591;-85
2021/01/21 04:16:58;;;;;;;76.15;31.05;;;;;;;;;;1754052;82;21587;-84
2021/01/21 04:19:24;;;;;;;74.42;32.48;;;;;;;;;;1754086;82;21199;-84
2021/01/21 04:21:51;;;;;;;73.60;31.80;;;;;;;;;;1754500;82;21254;-85
2021/01/21 04:24:17;;;;;;;69.53;32.67;;;;;;;;;;1754141;81;21192;-85
2021/01/21 04:26:43;;;;;;;81.08;33.58;;;;;;;;;;1754077;82;21155;-86
2021/01/21 04:29:10;;;;;;;76.60;33.23;;;;;;;;;;1754084;82;21576;-85
2021/01/21 04:31:36;;;;;;;80.65;35.68;;;;;;;;;;1754155;82;21171;-84
2021/01/21 04:34:02;;;;;;;75.83;34.90;;;;;;;;;;1754317;82;21167;-84
2021/01/21 04:36:28;;;;;;;79.03;34.27;;;;;;;;;;1753918;82;21165;-85
2021/01/21 04:38:55;;;;;;;84.37;35.52;;;;;;;;;;1753972;82;21190;-85
2021/01/21 04:41:21;;;;;;;75.42;31.65;;;;;;;;;;1741672;81;21171;-86
2021/01/21 04:43:47;;;;;;;81.87;34.43;;;;;;;;;;1739907;82;21148;-86
2021/01/21 04:46:13;;;;;;;79.55;32.70;;;;;;;;;;1739963;82;21183;-86
2021/01/21 04:48:39;;;;;;;82.55;35.75;;;;;;;;;;1740017;82;21579;-85
2021/01/21 04:51:06;;;;;;;80.92;35.58;;;;;;;;;;1740108;82;21357;-85
2021/01/21 04:53:32;;;;;;;73.00;34.08;;;;;;;;;;1740302;82;21169;-85
2021/01/21 04:55:59;;;;;;;82.20;33.45;;;;;;;;;;1739956;82;21132;-84
2021/01/21 04:58:29;;;;;;;84.05;34.23;;;;;;;;;;1740016;82;21298;-85
2021/01/21 05:00:59;;;;;;;74.42;34.43;;;;;;;;;;1740335;82;21140;-85
2021/01/21 05:03:25;;;;;;;88.30;36.58;;;;;;;;;;1739920;82;21262;-83
2021/01/21 05:05:51;;;;;;;88.72;33.78;;;;;;;;;;1739928;82;21726;-85
2021/01/21 05:08:20;;;;;;;86.82;34.73;;;;;;;;;;1739938;82;21297;-85
2021/01/21 05:10:46;;;;;;;86.82;31.77;;;;;;;;;;1739947;82;21310;-86
2021/01/21 05:13:12;;;;;;;81.90;34.73;;;;;;;;;;1739981;82;21616;-85
2021/01/21 05:15:38;;;;;;;88.85;33.90;;;;;;;;;;1739809;82;21176;-85
2021/01/21 05:18:04;;;;;;;77.80;33.35;;;;;;;;;;1739977;82;21164;-86
2021/01/21 05:20:32;;;;;;;91.65;33.85;;;;;;;;;;1739988;82;21156;-85
2021/01/21 05:22:59;;;;;;;83.67;33.33;;;;;;;;;;1740068;82;21152;-85
2021/01/21 05:25:26;;;;;;;81.20;32.33;;;;;;;;;;1739885;82;21931;-85
2021/01/21 05:27:54;;;;;;;82.62;33.85;;;;;;;;;;1740017;82;21572;-85
2021/01/21 05:30:20;;;;;;;85.40;31.48;;;;;;;;;;1739385;82;21172;-84
2021/01/21 05:32:47;;;;;;;85.83;33.65;;;;;;;;;;1739883;82;21167;-85
2021/01/21 05:35:17;;;;;;;76.12;31.93;;;;;;;;;;1740270;82;21165;-84
2021/01/21 05:37:43;;;;;;;79.80;33.83;;;;;;;;;;1738731;82;21152;-85
2021/01/21 05:40:10;;;;;;;73.90;31.68;;;;;;;;;;1743746;81;21380;-85
2021/01/21 05:42:37;;;;;;;79.15;34.75;;;;;;;;;;1726373;82;21608;-85
2021/01/21 05:45:04;;;;;;;77.30;32.80;;;;;;;;;;1754081;82;21176;-84
2021/01/21 05:47:30;;;;;;;82.15;34.73;;;;;;;;;;1753999;82;21175;-85
2021/01/21 05:49:56;;;;;;;83.10;33.90;;;;;;;;;;1754118;82;21174;-85
2021/01/21 05:52:23;;;;;;;81.53;33.55;;;;;;;;;;1754091;82;21151;-85
2021/01/21 05:54:49;;;;;;;82.30;32.55;;;;;;;;;;1726358;82;21132;-85
2021/01/21 05:57:15;;;;;;;81.12;32.48;;;;;;;;;;1753943;82;21594;-85
2021/01/21 05:59:42;;;;;;;73.02;32.33;;;;;;;;;;1753879;82;21151;-85
2021/01/21 06:02:08;;;;;;;72.30;32.15;;;;;;;;;;1753870;82;21199;-84
2021/01/21 06:04:34;;;;;;;78.72;33.78;;;;;;;;;;1754093;82;21155;-83
2021/01/21 06:07:01;;;;;;;91.02;37.15;;;;;;;;;;1754091;82;21156;-84
2021/01/21 06:09:28;;;;;;;85.80;35.58;;;;;;;;;;1753923;82;21630;-85
2021/01/21 06:12:00;;;;;;;98.90;37.85;;;;;;;;;;1753898;82;21128;-84
2021/01/21 06:14:26;;;;;;;95.97;37.58;;;;;;;;;;1753921;82;21166;-85
2021/01/21 06:16:53;;;;;;;93.55;37.50;;;;;;;;;;1753715;82;21148;-84
2021/01/21 06:19:19;;;;;;;97.82;38.55;;;;;;;;;;1754029;82;21240;-84
2021/01/21 06:21:50;;;;;;;106.22;41.48;;;;;;;;;;1754198;81;21156;-86
2021/01/21 06:24:16;;;;;;;107.55;42.88;;;;;;;;;;1753925;82;21195;-84
2021/01/21 06:26:45;;;;;;;97.97;38.02;;;;;;;;;;1753880;82;21183;-85
2021/01/21 06:29:11;;;;;;;102.85;41.75;;;;;;;;;;1754084;81;21151;-85
2021/01/21 06:31:37;;;;;;;113.72;39.45;;;;;;;;;;1753847;82;21155;-86
2021/01/21 06:34:05;;;;;;;107.07;38.73;;;;;;;;;;1753936;82;21128;-85
2021/01/21 06:36:33;;;;;;;96.57;35.75;;;;;;;;;;1753353;82;21237;-85
2021/01/21 06:39:01;;;;;;;90.35;35.92;;;;;;;;;;1753711;82;21199;-84
2021/01/21 06:41:28;;;;;;;95.55;34.03;;;;;;;;;;1749981;81;21164;-87
2021/01/21 06:43:54;;;;;;;82.90;32.90;;;;;;;;;;1748011;82;21163;-84
2021/01/21 06:46:20;;;;;;;87.15;36.45;;;;;;;;;;1748158;82;21183;-85
2021/01/21 06:48:48;;;;;;;95.00;37.42;;;;;;;;;;1748166;82;21188;-85
2021/01/21 06:51:14;;;;;;;77.82;32.83;;;;;;;;;;1747936;82;21160;-85
2021/01/21 06:53:44;;;;;;;79.82;32.30;;;;;;;;;;1747989;82;21215;-84
2021/01/21 06:56:10;;;;;;;77.67;31.62;;;;;;;;;;1747961;82;21596;-85
2021/01/21 06:58:48;;;;;;;73.40;32.58;;;;;;;;;;1748286;82;21167;-85
2021/01/21 07:01:33;;;;;;;78.75;32.80;;;;;;;;;;1738256;82;21639;-84
2021/01/21 07:04:05;;;;;;;66.97;30.05;;;;;;;;;;1747887;82;21634;-85
2021/01/21 07:06:50;;;;;;;77.40;34.33;;;;;;;;;;1748011;82;21620;-85
2021/01/21 07:09:23;;;;;;;83.47;36.08;;;;;;;;;;1747912;82;21183;-85
2021/01/21 07:11:55;;;;;;;93.40;36.98;;;;;;;;;;1719028;82;21592;-85
2021/01/21 07:14:23;;;;;;;86.32;36.40;;;;;;;;;;1748005;82;21156;-85
2021/01/21 07:16:49;;;;;;;86.55;34.45;;;;;;;;;;1748069;82;21156;-84
2021/01/21 07:19:15;;;;;;;97.33;41.15;;;;;;;;;;1747977;82;21168;-86
2021/01/21 07:21:43;;;;;;;89.58;34.58;;;;;;;;;;1747887;82;21176;-85
2021/01/21 07:24:12;;;;;;;82.80;34.92;;;;;;;;;;1747183;82;21595;-85
2021/01/21 07:26:42;;;;;;;80.15;35.88;;;;;;;;;;1719140;82;21560;-84
2021/01/21 07:29:10;;;;;;;89.65;35.95;;;;;;;;;;1748260;82;21152;-85
2021/01/21 07:31:53;;;;;;;95.28;38.00;;;;;;;;;;1747998;82;21666;-86
2021/01/21 07:34:23;;;;;;;92.88;38.53;;;;;;;;;;1747896;82;21147;-85
2021/01/21 07:37:08;;;;;;;95.67;38.33;;;;;;;;;;1748098;82;21147;-84
2021/01/21 07:39:53;;;;;;;79.15;33.75;;;;;;;;;;1748118;82;21184;-85
2021/01/21 07:42:20;;;;;;;80.85;36.00;;;;;;;;;;1740238;82;21165;-86
2021/01/21 07:44:56;;;;;;;88.97;38.33;;;;;;;;;;1739994;82;21160;-84
2021/01/21 07:47:26;;;;;;;99.20;41.18;;;;;;;;;;1740103;82;21141;-84
2021/01/21 07:49:55;;;;;;;105.22;41.68;;;;;;;;;;1739849;82;21184;-85
2021/01/21 07:52:23;;;;;;;96.08;43.58;;;;;;;;;;1736870;82;21180;-86
2021/01/21 07:54:49;;;;;;;78.28;36.68;;;;;;;;;;1738995;82;21144;-85
2021/01/21 07:57:22;;;;;;;87.50;38.10;;;;;;;;;;1740166;82;21358;-85
2021/01/21 07:59:57;;;;;;;88.72;39.65;;;;;;;;;;1719551;82;21160;-83
2021/01/21 08:02:25;;;;;;;94.30;42.05;;;;;;;;;;1740349;82;21163;-84
2021/01/21 08:05:00;;;;;;;88.52;40.67;;;;;;;;;;1740476;82;21160;-84
2021/01/21 08:07:44;;;;;;;70.17;31.80;;;;;;;;;;1740449;82;21342;-87
2021/01/21 08:10:11;;;;;;;67.95;31.90;;;;;;;;;;1740971;82;21152;-85
2021/01/21 08:12:51;;;;;;;74.80;33.65;;;;;;;;;;1738587;82;21291;-84
2021/01/21 08:15:20;;;;;;;73.30;34.78;;;;;;;;;;1739359;82;21631;-84
2021/01/21 08:17:49;;;;;;;71.37;34.20;;;;;;;;;;1737208;82;21199;-86
2021/01/21 08:20:17;;;;;;;70.60;32.98;;;;;;;;;;1739858;82;21346;-84
2021/01/21 08:22:59;;;;;;;71.57;34.38;;;;;;;;;;1739987;82;21326;-85
2021/01/21 08:25:26;;;;;;;82.05;37.60;;;;;;;;;;1739871;82;21729;-85
2021/01/21 08:27:58;;;;;;;74.97;36.05;;;;;;;;;;1740098;82;21275;-85
2021/01/21 08:30:24;;;;;;;70.03;31.57;;;;;;;;;;1740110;82;21155;-85
2021/01/21 08:32:53;;;;;;;70.50;32.90;;;;;;;;;;1739897;82;21302;-85
2021/01/21 08:35:27;;;;;;;70.78;32.28;;;;;;;;;;1734055;82;21184;-85
2021/01/21 08:37:58;;;;;;;65.83;31.97;;;;;;;;;;1740018;82;21734;-86
2021/01/21 08:40:24;;;;;;;66.10;29.98;;;;;;;;;;1740296;81;21144;-85
2021/01/21 08:42:50;;;;;;;68.45;31.70;;;;;;;;;;1739929;82;21644;-85
2021/01/21 08:45:19;;;;;;;65.25;30.10;;;;;;;;;;1740379;82;21200;-85
2021/01/21 08:47:46;;;;;;;74.25;32.05;;;;;;;;;;1739902;82;21129;-85
2021/01/21 08:50:22;;;;;;;76.60;32.05;;;;;;;;;;1740050;82;21164;-85
2021/01/21 08:53:00;;;;;;;71.37;32.05;;;;;;;;;;1738236;82;21245;-86
2021/01/21 08:55:44;;;;;;;75.42;33.80;;;;;;;;;;1730055;82;21157;-85
2021/01/21 08:58:12;;;;;;;76.15;32.98;;;;;;;;;;1740042;82;21290;-85
2021/01/21 09:00:38;;;;;;;73.67;33.35;;;;;;;;;;1739783;82;21152;-84
2021/01/21 09:03:09;;;;;;;72.00;31.40;;;;;;;;;;1737733;82;21275;-85
2021/01/21 09:05:35;;;;;;;79.40;35.05;;;;;;;;;;1736465;82;21599;-85
2021/01/21 09:08:06;;;;;;;94.17;42.73;;;;;;;;;;1740056;82;21158;-86
2021/01/21 09:13:22;;;;;;;71.55;32.23;;;;;;;;;;1779953;79;23007;-86
2021/01/21 09:15:55;;;;;;;75.70;32.17;;;;;;;;;;1746090;82;21511;-85
2021/01/21 09:18:22;;;;;;;68.55;30.97;;;;;;;;;;1753845;82;21197;-86
2021/01/21 09:20:49;;;;;;;70.37;30.82;;;;;;;;;;1753999;82;21155;-85
2021/01/21 09:23:35;;;;;;;61.18;28.02;;;;;;;;;;1748666;82;21297;-85
2021/01/21 09:26:18;;;;;;;71.35;30.45;;;;;;;;;;1754088;82;21195;-86
2021/01/21 09:28:57;;;;;;;70.52;29.98;;;;;;;;;;1754009;81;21108;-84
2021/01/21 09:31:29;;;;;;;66.65;31.33;;;;;;;;;;1754109;82;21163;-85
2021/01/21 09:33:59;;;;;;;63.50;29.85;;;;;;;;;;1743698;82;21164;-86
2021/01/21 09:36:27;;;;;;;63.95;28.67;;;;;;;;;;1754632;82;21188;-86
2021/01/21 09:38:53;;;;;;;63.83;30.05;;;;;;;;;;1754167;82;21147;-85
2021/01/21 09:41:21;;;;;;;58.60;28.05;;;;;;;;;;1717505;82;21606;-86
2021/01/21 09:43:48;;;;;;;64.32;29.40;;;;;;;;;;1754044;82;21156;-86
2021/01/21 09:46:14;;;;;;;60.85;30.52;;;;;;;;;;1754269;82;21567;-86
2021/01/21 09:48:41;;;;;;;61.50;28.42;;;;;;;;;;1754248;82;21151;-87
2021/01/21 09:51:11;;;;;;;55.00;27.75;;;;;;;;;;1752648;82;21257;-86
2021/01/21 09:53:39;;;;;;;65.65;30.97;;;;;;;;;;1753968;82;21615;-86
2021/01/21 09:56:08;;;;;;;53.42;26.73;;;;;;;;;;1754056;82;21595;-86
2021/01/21 09:58:40;;;;;;;60.98;31.82;;;;;;;;;;1753909;82;21167;-86
2021/01/21 10:01:06;;;;;;;56.60;31.35;;;;;;;;;;1752469;82;21191;-87
2021/01/21 10:03:36;;;;;;;59.00;32.13;;;;;;;;;;1753704;82;21183;-86
2021/01/21 10:06:04;;;;;;;49.80;29.37;;;;;;;;;;1753922;82;21635;-86
2021/01/21 10:08:37;;;;;;;63.75;35.35;;;;;;;;;;1751971;82;21172;-86
2021/01/21 10:11:05;;;;;;;65.10;34.83;;;;;;;;;;1754274;82;21172;-85
2021/01/21 10:13:32;;;;;;;64.45;35.95;;;;;;;;;;1753902;82;21179;-85
2021/01/21 10:15:59;;;;;;;62.38;36.35;;;;;;;;;;1753762;82;21163;-84
2021/01/21 10:18:28;;;;;;;63.58;39.03;;;;;;;;;;1753708;82;21120;-86
2021/01/21 10:20:55;;;;;;;66.05;39.30;;;;;;;;;;1753907;82;21638;-85
2021/01/21 10:23:22;;;;;;;71.17;41.40;;;;;;;;;;1753663;82;21159;-85
2021/01/21 10:25:50;;;;;;;67.55;39.63;;;;;;;;;;1753156;82;21136;-85
2021/01/21 10:28:18;;;;;;;68.00;39.92;;;;;;;;;;1753087;82;21148;-84
2021/01/21 10:30:48;;;;;;;59.53;36.80;;;;;;;;;;1753583;82;21203;-84
2021/01/21 10:33:14;;;;;;;68.35;40.88;;;;;;;;;;1753410;82;21322;-84
2021/01/21 10:35:43;;;;;;;63.85;38.60;;;;;;;;;;1753219;82;21696;-84
2021/01/21 10:38:10;;;;;;;59.85;38.53;;;;;;;;;;1753585;82;21516;-84
2021/01/21 10:40:37;;;;;;;65.55;39.80;;;;;;;;;;1753177;82;21635;-84
2021/01/21 10:43:20;;;;;;;63.13;39.98;;;;;;;;;;1724404;82;21143;-84
2021/01/21 10:45:48;;;;;;;62.85;38.58;;;;;;;;;;1749090;82;21733;-84
2021/01/21 10:48:31;;;;;;;;;;;;;;;;;;;;;
2021/01/21 10:51:20;;;;;;;63.80;39.85;;;;;;;;;;1659356;86;21323;-83
2021/01/21 10:53:47;;;;;;;62.27;39.60;;;;;;;;;;1670645;82;21209;-83
2021/01/21 10:56:19;;;;;;;63.00;38.30;;;;;;;;;;1753250;82;21145;-83
2021/01/21 10:58:45;;;;;;;60.60;37.17;;;;;;;;;;1753463;82;21194;-83
2021/01/21 11:01:11;;;;;;;60.10;38.55;;;;;;;;;;1753548;82;21127;-83
2021/01/21 11:03:41;;;;;;;58.08;35.78;;;;;;;;;;1753423;82;21167;-84
2021/01/21 11:06:11;;;;;;;65.37;38.58;;;;;;;;;;1753227;82;21155;-85
2021/01/21 11:08:41;;;;;;;61.98;39.40;;;;;;;;;;1753024;82;21607;-84
2021/01/21 11:11:07;;;;;;;63.17;38.78;;;;;;;;;;1747609;82;21159;-84
2021/01/21 11:13:38;;;;;;;62.80;41.50;;;;;;;;;;1753877;82;21164;-83
2021/01/21 11:16:05;;;;;;;64.22;41.18;;;;;;;;;;1748955;82;21721;-83
2021/01/21 11:18:31;;;;;;;61.25;38.95;;;;;;;;;;1754354;82;21180;-85
2021/01/21 11:21:04;;;;;;;64.72;43.73;;;;;;;;;;1754327;81;21289;-83
2021/01/21 11:23:31;;;;;;;63.48;41.45;;;;;;;;;;1752001;82;21159;-85
2021/01/21 11:25:58;;;;;;;61.90;42.70;;;;;;;;;;1753981;81;21175;-84
2021/01/21 11:28:24;;;;;;;64.35;42.48;;;;;;;;;;1754120;81;21355;-84
2021/01/21 11:30:50;;;;;;;61.45;43.00;;;;;;;;;;1753911;81;21639;-84
2021/01/21 11:33:17;;;;;;;61.55;44.33;;;;;;;;;;1753858;82;21623;-84
2021/01/21 11:35:45;;;;;;;64.42;46.00;;;;;;;;;;1751981;82;21269;-84
2021/01/21 11:38:17;;;;;;;63.60;43.92;;;;;;;;;;1753902;82;21190;-85
2021/01/21 11:40:47;;;;;;;58.90;42.35;;;;;;;;;;1751993;81;21159;-83
2021/01/21 11:43:14;;;;;;;56.30;40.52;;;;;;;;;;1754044;81;21140;-85
2021/01/21 11:45:44;;;;;;;55.67;41.65;;;;;;;;;;1753839;82;21199;-85
2021/01/21 11:48:10;;;;;;;57.88;44.10;;;;;;;;;;1753892;82;21212;-84
2021/01/21 11:50:39;;;;;;;57.43;42.73;;;;;;;;;;1754042;81;21167;-84
2021/01/21 11:53:11;;;;;;;58.98;43.23;;;;;;;;;;1753829;81;21152;-83
2021/01/21 11:55:35;;;;;;;51.88;39.00;;;;;;;;;;1753102;82;21140;-84
2021/01/21 11:58:03;;;;;;;43.68;32.38;;;;;;;;;;1753822;81;21171;-84
2021/01/21 12:00:29;;;;;;;40.08;29.72;;;;;;;;;;1754174;82;21155;-84
2021/01/21 12:02:56;;;;;;;37.60;28.60;;;;;;;;;;1753791;81;21132;-84
2021/01/21 12:05:24;;;;;;;37.15;30.17;;;;;;;;;;1753827;81;21148;-84
2021/01/21 12:07:51;;;;;;;36.25;28.20;;;;;;;;;;1753950;82;21136;-84
2021/01/21 12:10:19;;;;;;;36.20;29.75;;;;;;;;;;1754079;82;21670;-85
2021/01/21 12:12:46;;;;;;;41.35;30.12;;;;;;;;;;1747082;81;21639;-85
2021/01/21 12:15:12;;;;;;;38.80;29.07;;;;;;;;;;1740042;82;21157;-84
2021/01/21 12:17:40;;;;;;;38.80;30.43;;;;;;;;;;1739799;82;21160;-85
2021/01/21 12:20:12;;;;;;;36.17;29.80;;;;;;;;;;1740310;82;21172;-85
2021/01/21 12:22:40;;;;;;;39.10;30.32;;;;;;;;;;1739869;82;21279;-86
2021/01/21 12:25:06;;;;;;;42.43;29.87;;;;;;;;;;1739839;82;21314;-85
2021/01/21 12:27:33;;;;;;;41.60;29.75;;;;;;;;;;1739803;82;21298;-84
2021/01/21 12:29:59;;;;;;;41.98;29.55;;;;;;;;;;1740027;82;21560;-85
2021/01/21 12:32:25;;;;;;;42.25;27.90;;;;;;;;;;1739932;82;21234;-84
2021/01/21 12:34:51;;;;;;;41.98;29.40;;;;;;;;;;1739877;82;21180;-85
2021/01/21 12:37:18;;;;;;;41.25;28.35;;;;;;;;;;1740148;82;21222;-86
2021/01/21 12:39:44;;;;;;;41.10;27.67;;;;;;;;;;1739871;82;21160;-85
2021/01/21 12:42:10;;;;;;;46.20;28.75;;;;;;;;;;1739832;82;21180;-85
2021/01/21 12:44:36;;;;;;;40.12;26.50;;;;;;;;;;1739966;82;21290;-86
2021/01/21 12:47:04;;;;;;;41.37;26.68;;;;;;;;;;1740075;82;21180;-86
2021/01/21 12:49:31;;;;;;;43.68;27.37;;;;;;;;;;1718013;82;21161;-86
2021/01/21 12:51:57;;;;;;;40.48;26.00;;;;;;;;;;1718812;82;21162;-86
2021/01/21 12:54:23;;;;;;;40.88;26.02;;;;;;;;;;1739864;82;21576;-86
2021/01/21 12:56:49;;;;;;;41.73;24.90;;;;;;;;;;1739803;82;21168;-86
2021/01/21 12:59:16;;;;;;;42.05;24.92;;;;;;;;;;1740100;82;21349;-85
2021/01/21 13:01:42;;;;;;;37.98;23.90;;;;;;;;;;1740031;82;21282;-85
2021/01/21 13:04:08;;;;;;;39.75;23.40;;;;;;;;;;1739672;82;21128;-86
2021/01/21 13:06:34;;;;;;;42.75;25.57;;;;;;;;;;1740193;82;21164;-86
2021/01/21 13:09:01;;;;;;;41.95;24.47;;;;;;;;;;1740112;82;21169;-85
2021/01/21 13:11:27;;;;;;;42.00;26.00;;;;;;;;;;1739711;82;21196;-86
2021/01/21 13:13:54;;;;;;;40.55;23.57;;;;;;;;;;1746644;81;21233;-86
2021/01/21 13:16:20;;;;;;;41.42;24.95;;;;;;;;;;1748259;82;21168;-85
2021/01/21 13:18:52;;;;;;;42.83;25.30;;;;;;;;;;1748267;82;21591;-86
2021/01/21 13:21:18;;;;;;;39.08;21.55;;;;;;;;;;1747002;82;21172;-86
2021/01/21 13:23:44;;;;;;;42.55;25.12;;;;;;;;;;1748096;81;21159;-86
2021/01/21 13:26:10;;;;;;;42.80;25.43;;;;;;;;;;1748080;82;21145;-85
2021/01/21 13:28:36;;;;;;;44.45;25.97;;;;;;;;;;1748198;82;21187;-86
2021/01/21 13:31:03;;;;;;;43.25;24.80;;;;;;;;;;1720985;82;21185;-85
2021/01/21 13:33:29;;;;;;;43.05;24.15;;;;;;;;;;1718230;83;21178;-85
2021/01/21 13:35:55;;;;;;;42.43;26.02;;;;;;;;;;1718636;83;21171;-85
2021/01/21 13:38:23;;;;;;;45.28;26.33;;;;;;;;;;1718202;83;21163;-86
2021/01/21 13:40:50;;;;;;;43.20;24.95;;;;;;;;;;1718495;83;21163;-85
2021/01/21 13:43:16;;;;;;;46.05;25.37;;;;;;;;;;1718382;83;21159;-85
2021/01/21 13:45:42;;;;;;;46.53;27.37;;;;;;;;;;1718548;83;21156;-84
2021/01/21 13:48:09;;;;;;;44.20;25.25;;;;;;;;;;1718430;83;21179;-85
2021/01/21 13:50:35;;;;;;;45.92;25.70;;;;;;;;;;1718418;83;21156;-85
2021/01/21 13:53:01;;;;;;;45.28;27.37;;;;;;;;;;1718293;83;21180;-84
2021/01/21 13:55:28;;;;;;;44.13;26.15;;;;;;;;;;1718480;83;21164;-87
2021/01/21 13:57:55;;;;;;;43.58;24.98;;;;;;;;;;1718548;83;21160;-86
2021/01/21 14:00:22;;;;;;;42.10;25.37;;;;;;;;;;1718780;83;21159;-86
2021/01/21 14:02:48;;;;;;;44.18;25.77;;;;;;;;;;1718513;83;21183;-85
2021/01/21 14:05:14;;;;;;;39.33;25.27;;;;;;;;;;1718498;83;21202;-86
2021/01/21 14:07:40;;;;;;;46.35;25.60;;;;;;;;;;1718627;83;21248;-85
2021/01/21 14:10:07;;;;;;;45.60;26.55;;;;;;;;;;1718856;83;21164;-86
2021/01/21 14:12:33;;;;;;;48.87;26.60;;;;;;;;;;1717267;82;21763;-86
2021/01/21 14:15:00;;;;;;;49.13;28.02;;;;;;;;;;1710753;84;21210;-85
2021/01/21 14:17:26;;;;;;;53.63;27.45;;;;;;;;;;1710771;84;21144;-87
2021/01/21 14:19:52;;;;;;;45.92;26.52;;;;;;;;;;1710608;84;21167;-87
2021/01/21 14:22:18;;;;;;;49.98;26.82;;;;;;;;;;1710857;83;21196;-86
2021/01/21 14:24:45;;;;;;;50.38;28.80;;;;;;;;;;1711102;84;21310;-85